createdAt,value
2019-03-24T00:01:50.150Z,25.00
2019-03-24T00:04:21.130Z,26.17
2019-03-24T00:06:52.071Z,23.98
2019-03-24T00:09:23.041Z,24.52
2019-03-24T00:11:54.032Z,24.35
2019-03-24T00:14:24.993Z,26.17
2019-03-24T00:16:55.954Z,23.83
2019-03-24T00:19:26.946Z,25.00
2019-03-24T00:21:57.875Z,25.90
2019-03-24T00:24:29.344Z,22.85
2019-03-24T00:27:00.440Z,24.55
2019-03-24T00:29:31.789Z,26.68
2019-03-24T00:32:03.884Z,28.02
2019-03-24T00:34:35.038Z,27.50
2019-03-24T00:37:05.985Z,30.88
2019-03-24T00:39:36.964Z,29.82
2019-03-24T00:42:07.900Z,28.07
2019-03-24T00:44:38.879Z,28.27
2019-03-24T00:47:09.827Z,28.45
2019-03-24T00:49:40.812Z,28.55
2019-03-24T00:52:11.752Z,30.55
2019-03-24T00:54:42.748Z,28.85
2019-03-24T00:57:13.697Z,30.65
2019-03-24T00:59:44.774Z,28.92
2019-03-24T01:02:15.748Z,31.20
2019-03-24T01:04:46.810Z,29.50
2019-03-24T01:07:17.761Z,29.67
2019-03-24T01:09:48.739Z,30.52
2019-03-24T01:12:19.675Z,29.70
2019-03-24T01:14:50.649Z,29.82
2019-03-24T01:17:21.674Z,30.15
2019-03-24T01:19:52.650Z,30.92
2019-03-24T01:22:23.606Z,26.90
2019-03-24T01:24:54.580Z,30.23
2019-03-24T01:27:25.531Z,28.83
2019-03-24T01:29:56.503Z,29.35
2019-03-24T01:32:27.508Z,29.72
2019-03-24T01:34:58.577Z,29.32
2019-03-24T01:37:29.523Z,27.10
2019-03-24T01:40:00.496Z,29.32
2019-03-24T01:42:31.461Z,31.80
2019-03-24T01:45:02.435Z,29.05
2019-03-24T01:47:33.402Z,27.93
2019-03-24T01:50:05.976Z,29.48
2019-03-24T01:52:36.919Z,30.00
2019-03-24T01:55:08.222Z,30.32
2019-03-24T01:57:39.185Z,31.20
2019-03-24T02:00:10.456Z,29.60
2019-03-24T02:02:41.397Z,30.25
2019-03-24T02:05:12.458Z,30.40
2019-03-24T02:07:43.440Z,29.40
2019-03-24T02:10:15.108Z,28.30
2019-03-24T02:12:46.071Z,26.80
2019-03-24T02:15:17.354Z,27.65
2019-03-24T02:17:48.245Z,28.00
2019-03-24T02:20:19.230Z,28.27
2019-03-24T02:22:50.193Z,28.17
2019-03-24T02:25:21.221Z,29.42
2019-03-24T02:27:52.259Z,26.20
2019-03-24T02:30:23.207Z,27.32
2019-03-24T02:32:54.188Z,28.27
2019-03-24T02:35:25.139Z,26.10
2019-03-24T02:37:56.148Z,27.25
2019-03-24T02:40:27.173Z,26.75
2019-03-24T02:42:58.146Z,30.50
2019-03-24T02:45:29.117Z,26.60
2019-03-24T02:48:00.144Z,27.62
2019-03-24T02:50:31.092Z,28.57
2019-03-24T02:53:03.066Z,29.20
2019-03-24T02:55:34.034Z,27.37
2019-03-24T02:58:05.015Z,28.50
2019-03-24T03:00:35.962Z,25.80
2019-03-24T03:03:07.015Z,28.57
2019-03-24T03:05:37.954Z,27.22
2019-03-24T03:08:08.928Z,25.62
2019-03-24T03:10:39.883Z,28.23
2019-03-24T03:13:10.854Z,26.85
2019-03-24T03:15:41.803Z,25.00
2019-03-24T03:18:12.778Z,27.70
2019-03-24T03:20:43.722Z,27.73
2019-03-24T03:23:14.715Z,28.32
2019-03-24T03:25:45.751Z,27.13
2019-03-24T03:28:16.696Z,29.07
2019-03-24T03:30:48.696Z,28.42
2019-03-24T03:33:19.781Z,27.55
2019-03-24T03:35:50.832Z,26.37
2019-03-24T03:38:21.799Z,27.42
2019-03-24T03:40:52.821Z,27.98
2019-03-24T03:43:23.812Z,28.35
2019-03-24T03:45:54.836Z,27.13
2019-03-24T03:48:25.963Z,29.52
2019-03-24T03:50:58.042Z,27.00
2019-03-24T03:53:28.991Z,28.30
2019-03-24T03:55:59.974Z,30.25
2019-03-24T03:58:30.989Z,27.93
2019-03-24T04:01:01.972Z,28.12
2019-03-24T04:03:32.920Z,27.17
2019-03-24T04:06:03.915Z,31.73
2019-03-24T04:08:34.924Z,29.48
2019-03-24T04:11:05.918Z,30.32
2019-03-24T04:13:36.858Z,30.82
2019-03-24T04:16:07.832Z,29.15
2019-03-24T04:18:38.779Z,28.15
2019-03-24T04:21:09.802Z,29.25
2019-03-24T04:23:40.920Z,27.65
2019-03-24T04:26:11.903Z,29.20
2019-03-24T04:28:42.845Z,27.55
2019-03-24T04:31:13.904Z,28.80
2019-03-24T04:33:44.955Z,28.52
2019-03-24T04:36:15.993Z,27.02
2019-03-24T04:38:46.961Z,25.77
2019-03-24T04:41:17.917Z,28.42
2019-03-24T04:43:48.896Z,29.18
2019-03-24T04:46:19.832Z,28.20
2019-03-24T04:48:50.817Z,26.23
2019-03-24T04:51:21.764Z,28.02
2019-03-24T04:53:52.746Z,29.87
2019-03-24T04:56:23.689Z,28.62
2019-03-24T04:58:54.666Z,27.60
2019-03-24T05:01:25.608Z,32.33
2019-03-24T05:03:56.593Z,33.48
2019-03-24T05:06:27.786Z,25.77
2019-03-24T05:08:58.812Z,28.62
2019-03-24T05:11:29.761Z,29.27
2019-03-24T05:14:00.732Z,29.42
2019-03-24T05:16:31.677Z,27.90
2019-03-24T05:19:02.650Z,28.10
2019-03-24T05:21:33.626Z,26.70
2019-03-24T05:24:04.605Z,25.40
2019-03-24T05:26:35.559Z,30.00
2019-03-24T05:29:06.528Z,26.35
2019-03-24T05:31:37.465Z,25.35
2019-03-24T05:34:08.438Z,23.85
2019-03-24T05:36:39.522Z,24.43
2019-03-24T05:39:10.463Z,23.90
2019-03-24T05:41:41.428Z,25.45
2019-03-24T05:44:12.384Z,26.90
2019-03-24T05:46:43.349Z,26.27
2019-03-24T05:49:14.294Z,24.63
2019-03-24T05:51:45.380Z,25.12
2019-03-24T05:54:16.328Z,23.92
2019-03-24T05:56:47.302Z,26.17
2019-03-24T05:59:18.251Z,24.07
2019-03-24T06:01:49.230Z,24.05
2019-03-24T06:04:20.177Z,24.30
2019-03-24T06:06:51.154Z,25.57
2019-03-24T06:09:22.173Z,23.83
2019-03-24T06:11:53.157Z,21.95
2019-03-24T06:14:24.098Z,25.10
2019-03-24T06:16:55.081Z,23.27
2019-03-24T06:19:26.073Z,23.22
2019-03-24T06:21:57.008Z,22.85
2019-03-24T06:24:27.986Z,20.32
2019-03-24T06:26:58.929Z,23.38
2019-03-24T06:29:29.912Z,21.62
2019-03-24T06:32:00.848Z,22.55
2019-03-24T06:34:31.950Z,20.27
2019-03-24T06:37:03.036Z,20.75
2019-03-24T06:39:34.016Z,21.95
2019-03-24T06:42:04.959Z,21.70
2019-03-24T06:44:35.924Z,22.07
2019-03-24T06:47:06.867Z,22.60
2019-03-24T06:49:37.838Z,19.98
2019-03-24T06:52:08.780Z,20.88
2019-03-24T06:54:39.824Z,19.92
2019-03-24T06:57:10.764Z,18.77
2019-03-24T06:59:41.739Z,18.27
2019-03-24T07:02:12.686Z,17.27
2019-03-24T07:04:43.727Z,18.67
2019-03-24T07:07:14.669Z,20.90
2019-03-24T07:09:45.639Z,18.10
2019-03-24T07:12:16.589Z,17.20
2019-03-24T07:14:47.559Z,16.25
2019-03-24T07:17:18.530Z,17.00
2019-03-24T07:19:49.488Z,16.82
2019-03-24T07:22:21.206Z,18.45
2019-03-24T07:24:52.139Z,19.37
2019-03-24T07:27:23.248Z,31.05
2019-03-24T07:29:54.188Z,18.50
2019-03-24T07:32:25.147Z,16.73
2019-03-24T07:34:56.087Z,19.37
2019-03-24T07:37:27.059Z,18.48
2019-03-24T07:39:58.003Z,18.85
2019-03-24T07:42:30.087Z,20.05
2019-03-24T07:45:01.032Z,17.77
2019-03-24T07:47:33.102Z,18.60
2019-03-24T07:50:06.111Z,18.65
2019-03-24T07:52:37.087Z,17.42
2019-03-24T07:55:08.687Z,17.27
2019-03-24T07:57:39.651Z,18.98
2019-03-24T08:00:12.390Z,18.60
2019-03-24T08:02:51.298Z,19.67
2019-03-24T08:05:20.513Z,21.23
2019-03-24T08:07:51.485Z,19.42
2019-03-24T08:10:22.430Z,19.85
2019-03-24T08:12:53.496Z,17.15
2019-03-24T08:15:24.615Z,17.17
2019-03-24T08:17:55.593Z,18.10
2019-03-24T08:20:26.529Z,21.75
2019-03-24T08:22:57.502Z,19.87
2019-03-24T08:25:28.481Z,19.15
2019-03-24T08:27:59.424Z,18.95
2019-03-24T08:30:35.778Z,16.97
2019-03-24T08:33:06.959Z,20.02
2019-03-24T08:35:37.944Z,19.10
2019-03-24T08:38:08.890Z,16.50
2019-03-24T08:40:39.881Z,18.80
2019-03-24T08:43:11.829Z,18.73
2019-03-24T08:45:42.826Z,20.02
2019-03-24T08:48:13.788Z,17.67
2019-03-24T08:50:44.813Z,19.02
2019-03-24T08:53:15.757Z,19.23
2019-03-24T08:55:46.779Z,19.85
2019-03-24T08:58:17.768Z,18.35
2019-03-24T09:00:48.822Z,21.80
2019-03-24T09:03:19.845Z,21.15
2019-03-24T09:05:50.866Z,21.20
2019-03-24T09:08:21.816Z,20.08
2019-03-24T09:10:52.796Z,20.75
2019-03-24T09:13:23.779Z,24.18
2019-03-24T09:15:54.741Z,23.30
2019-03-24T09:18:25.720Z,24.02
2019-03-24T09:20:56.698Z,23.77
2019-03-24T09:23:28.736Z,25.37
2019-03-24T09:25:59.698Z,24.75
2019-03-24T09:28:30.677Z,31.17
2019-03-24T09:31:02.616Z,26.75
2019-03-24T09:33:33.716Z,29.77
2019-03-24T09:36:04.667Z,28.30
2019-03-24T09:38:35.652Z,31.55
2019-03-24T09:41:07.807Z,34.33
2019-03-24T09:43:38.788Z,32.67
2019-03-24T09:46:09.735Z,32.50
2019-03-24T09:48:40.749Z,31.87
2019-03-24T09:51:11.739Z,33.78
2019-03-24T09:53:42.735Z,35.30
2019-03-24T09:56:13.735Z,35.58
2019-03-24T09:58:44.819Z,37.60
2019-03-24T10:01:15.768Z,36.68
2019-03-24T10:03:46.853Z,35.92
2019-03-24T10:06:17.897Z,37.15
2019-03-24T10:08:48.853Z,37.50
2019-03-24T10:11:19.840Z,40.20
2019-03-24T10:13:50.990Z,38.73
2019-03-24T10:16:21.976Z,38.60
2019-03-24T10:18:53.025Z,39.37
2019-03-24T10:21:24.080Z,39.33
2019-03-24T10:23:55.030Z,42.60
2019-03-24T10:26:26.060Z,42.87
2019-03-24T10:28:57.065Z,44.40
2019-03-24T10:31:28.049Z,44.30
2019-03-24T10:33:59.001Z,43.27
2019-03-24T10:36:29.996Z,44.20
2019-03-24T10:39:01.017Z,47.00
2019-03-24T10:41:31.998Z,48.87
2019-03-24T10:44:02.958Z,51.60
2019-03-24T10:46:34.027Z,48.83
2019-03-24T10:49:04.973Z,49.17
2019-03-24T10:51:35.962Z,50.10
2019-03-24T10:54:06.916Z,54.37
2019-03-24T10:56:39.149Z,53.33
2019-03-24T10:59:10.131Z,51.17
2019-03-24T11:01:41.118Z,47.63
2019-03-24T11:04:12.089Z,50.17
2019-03-24T11:06:43.141Z,46.83
2019-03-24T11:09:14.240Z,50.27
2019-03-24T11:11:45.223Z,48.57
2019-03-24T11:14:16.205Z,49.20
2019-03-24T11:16:47.164Z,52.37
2019-03-24T11:19:18.141Z,49.43
2019-03-24T11:21:49.096Z,48.00
2019-03-24T11:24:20.074Z,47.63
2019-03-24T11:26:51.028Z,45.97
2019-03-24T11:29:22.011Z,44.97
2019-03-24T11:31:52.960Z,49.20
2019-03-24T11:34:23.945Z,44.40
2019-03-24T11:36:55.989Z,42.77
2019-03-24T11:39:26.974Z,33.63
2019-03-24T11:41:57.924Z,41.27
2019-03-24T11:44:28.968Z,44.07
2019-03-24T11:46:59.924Z,45.00
2019-03-24T11:49:30.922Z,45.80
2019-03-24T11:52:01.867Z,47.77
2019-03-24T11:54:33.870Z,51.17
2019-03-24T11:57:04.990Z,48.40
2019-03-24T11:59:37.055Z,50.00
2019-03-24T12:02:09.390Z,49.47
2019-03-24T12:04:40.414Z,46.37
2019-03-24T12:07:11.363Z,46.37
2019-03-24T12:09:42.440Z,49.00
2019-03-24T12:12:13.508Z,45.40
2019-03-24T12:14:44.555Z,47.77
2019-03-24T12:17:15.601Z,48.53
2019-03-24T12:19:56.488Z,46.37
2019-03-24T12:22:19.270Z,47.00
2019-03-24T12:24:51.256Z,48.50
2019-03-24T12:27:22.201Z,45.80
2019-03-24T12:29:53.177Z,47.77
2019-03-24T12:32:24.125Z,49.50
2019-03-24T12:34:55.106Z,46.70
2019-03-24T12:37:26.053Z,46.70
2019-03-24T12:39:58.056Z,45.87
2019-03-24T12:42:30.857Z,44.50
2019-03-24T12:45:01.840Z,45.33
2019-03-24T12:47:32.890Z,49.37
2019-03-24T12:50:09.366Z,47.37
2019-03-24T12:52:38.257Z,45.13
2019-03-24T12:55:09.641Z,50.13
2019-03-24T12:57:40.593Z,47.90
2019-03-24T13:00:18.883Z,49.23
2019-03-24T13:02:49.840Z,47.87
2019-03-24T13:05:20.924Z,46.60
2019-03-24T13:07:52.488Z,46.50
2019-03-24T13:10:23.527Z,47.70
2019-03-24T13:12:54.522Z,50.20
2019-03-24T13:15:25.507Z,47.80
2019-03-24T13:17:56.461Z,48.17
2019-03-24T13:20:37.824Z,48.30
2019-03-24T13:23:00.104Z,48.90
2019-03-24T13:25:31.257Z,48.63
2019-03-24T13:28:02.204Z,48.37
2019-03-24T13:30:33.183Z,46.27
2019-03-24T13:33:04.338Z,44.50
2019-03-24T13:35:35.325Z,45.53
2019-03-24T13:38:06.291Z,46.67
2019-03-24T13:40:37.340Z,44.23
2019-03-24T13:43:08.297Z,51.53
2019-03-24T13:45:39.272Z,44.57
2019-03-24T13:48:10.240Z,49.07
2019-03-24T13:50:41.288Z,46.77
2019-03-24T13:53:12.238Z,47.40
2019-03-24T13:55:43.215Z,46.10
2019-03-24T13:58:14.245Z,48.50
2019-03-24T14:00:45.333Z,45.47
2019-03-24T14:03:16.326Z,45.70
2019-03-24T14:05:48.342Z,44.07
2019-03-24T14:08:20.276Z,47.60
2019-03-24T14:10:51.252Z,45.83
2019-03-24T14:13:22.285Z,45.40
2019-03-24T14:15:53.274Z,44.77
2019-03-24T14:18:24.423Z,44.60
2019-03-24T14:20:55.431Z,43.67
2019-03-24T14:23:26.451Z,41.97
2019-03-24T14:25:57.444Z,41.13
2019-03-24T14:28:28.394Z,40.00
2019-03-24T14:30:59.545Z,39.90
2019-03-24T14:33:30.545Z,40.70
2019-03-24T14:36:01.563Z,41.60
2019-03-24T14:38:32.552Z,45.50
2019-03-24T14:41:04.531Z,48.33
2019-03-24T14:43:35.566Z,44.60
2019-03-24T14:46:08.073Z,46.13
2019-03-24T14:48:39.083Z,41.60
2019-03-24T14:51:10.065Z,43.40
2019-03-24T14:53:41.082Z,40.40
2019-03-24T14:56:12.051Z,40.43
2019-03-24T14:58:43.022Z,43.90
2019-03-24T15:01:13.976Z,41.60
2019-03-24T15:03:45.152Z,41.90
2019-03-24T15:06:16.122Z,40.77
2019-03-24T15:08:47.169Z,41.77
2019-03-24T15:11:18.213Z,39.20
2019-03-24T15:13:49.285Z,41.77
2019-03-24T15:16:20.398Z,40.23
2019-03-24T15:18:51.539Z,41.40
2019-03-24T15:21:22.542Z,40.17
2019-03-24T15:23:53.582Z,41.83
2019-03-24T15:26:24.569Z,42.57
2019-03-24T15:28:55.516Z,39.30
2019-03-24T15:31:27.895Z,41.53
2019-03-24T15:33:58.858Z,41.90
2019-03-24T15:36:29.845Z,40.77
2019-03-24T15:39:00.790Z,41.77
2019-03-24T15:41:32.274Z,40.13
2019-03-24T15:44:03.242Z,40.43
2019-03-24T15:46:34.306Z,39.57
2019-03-24T15:49:05.257Z,38.33
2019-03-24T15:51:36.368Z,40.77
2019-03-24T15:54:07.394Z,37.97
2019-03-24T15:56:38.363Z,36.37
2019-03-24T15:59:10.319Z,35.40
2019-03-24T16:01:41.336Z,37.80
2019-03-24T16:04:12.289Z,37.03
2019-03-24T16:06:43.466Z,37.17
2019-03-24T16:09:14.508Z,38.57
2019-03-24T16:11:45.502Z,37.27
2019-03-24T16:14:16.484Z,39.47
2019-03-24T16:16:47.541Z,37.90
2019-03-24T16:19:18.574Z,35.50
2019-03-24T16:21:49.541Z,39.33
2019-03-24T16:24:20.505Z,36.33
2019-03-24T16:26:51.458Z,38.27
2019-03-24T16:29:22.426Z,36.40
2019-03-24T16:31:53.452Z,39.43
2019-03-24T16:34:24.435Z,39.63
2019-03-24T16:36:55.384Z,38.20
2019-03-24T16:39:26.394Z,39.03
2019-03-24T16:41:56.378Z,37.20
2019-03-24T16:44:30.098Z,37.07
2019-03-24T16:47:01.153Z,34.17
2019-03-24T16:49:32.142Z,37.43
2019-03-24T16:52:03.088Z,34.97
2019-03-24T16:54:34.141Z,35.83
2019-03-24T16:57:05.088Z,35.93
2019-03-24T16:59:36.105Z,37.00
2019-03-24T17:02:07.249Z,35.17
2019-03-24T17:04:38.250Z,36.40
2019-03-24T17:07:09.314Z,35.10
2019-03-24T17:09:40.371Z,35.37
2019-03-24T17:12:11.355Z,36.70
2019-03-24T17:14:42.308Z,35.20
2019-03-24T17:17:13.291Z,36.30
2019-03-24T17:19:44.329Z,36.20
2019-03-24T17:22:15.310Z,35.67
2019-03-24T17:24:46.367Z,37.73
2019-03-24T17:27:17.362Z,41.37
2019-03-24T17:29:48.382Z,39.03
2019-03-24T17:32:19.370Z,41.50
2019-03-24T17:34:50.325Z,47.53
2019-03-24T17:37:21.306Z,46.10
2019-03-24T17:39:52.263Z,39.77
2019-03-24T17:42:23.241Z,40.57
2019-03-24T17:44:54.205Z,43.60
2019-03-24T17:47:25.226Z,41.37
2019-03-24T17:49:56.227Z,41.63
2019-03-24T17:52:27.145Z,42.25
2019-03-24T17:54:58.771Z,43.10
2019-03-24T17:57:29.777Z,43.87
2019-03-24T18:00:02.082Z,44.38
2019-03-24T18:02:33.166Z,45.38
2019-03-24T18:05:04.762Z,44.70
2019-03-24T18:07:35.718Z,42.90
2019-03-24T18:10:08.696Z,46.63
2019-03-24T18:12:39.651Z,48.17
2019-03-24T18:15:11.659Z,47.48
2019-03-24T18:17:42.610Z,48.78
2019-03-24T18:20:19.088Z,47.88
2019-03-24T18:22:50.039Z,49.18
2019-03-24T18:25:21.075Z,51.55
2019-03-24T18:27:52.026Z,51.15
2019-03-24T18:30:23.120Z,50.08
2019-03-24T18:32:54.076Z,51.37
2019-03-24T18:35:25.058Z,48.28
2019-03-24T18:37:56.007Z,52.95
2019-03-24T18:40:26.991Z,52.88
2019-03-24T18:42:58.151Z,54.73
2019-03-24T18:45:29.133Z,56.45
2019-03-24T18:48:00.089Z,53.23
2019-03-24T18:50:31.080Z,55.85
2019-03-24T18:53:02.279Z,56.37
2019-03-24T18:55:33.291Z,55.50
2019-03-24T18:58:05.491Z,58.10
2019-03-24T19:00:36.475Z,58.58
2019-03-24T19:03:07.470Z,56.00
2019-03-24T19:05:39.424Z,61.28
2019-03-24T19:08:10.429Z,59.85
2019-03-24T19:10:41.369Z,56.28
2019-03-24T19:13:12.361Z,61.25
2019-03-24T19:15:46.294Z,57.55
2019-03-24T19:18:17.360Z,61.02
2019-03-24T19:20:49.363Z,63.20
2019-03-24T19:23:20.404Z,57.90
2019-03-24T19:25:51.454Z,60.50
2019-03-24T19:28:22.443Z,51.85
2019-03-24T19:30:53.414Z,54.05
2019-03-24T19:33:24.533Z,52.90
2019-03-24T19:35:55.525Z,50.75
2019-03-24T19:38:26.641Z,51.77
2019-03-24T19:40:57.591Z,48.83
2019-03-24T19:43:28.584Z,52.62
2019-03-24T19:45:59.586Z,50.43
2019-03-24T19:48:31.765Z,49.35
2019-03-24T19:51:02.783Z,51.73
2019-03-24T19:53:33.886Z,54.10
2019-03-24T19:56:08.055Z,48.70
2019-03-24T19:58:39.034Z,49.27
2019-03-24T20:01:10.027Z,50.25
2019-03-24T20:03:43.393Z,49.08
2019-03-24T20:06:13.654Z,48.92
2019-03-24T20:08:44.600Z,49.50
2019-03-24T20:11:16.698Z,51.28
2019-03-24T20:13:47.667Z,48.38
2019-03-24T20:16:18.734Z,51.13
2019-03-24T20:18:49.681Z,53.68
2019-03-24T20:21:20.992Z,50.33
2019-03-24T20:23:52.006Z,54.27
2019-03-24T20:26:22.997Z,54.23
2019-03-24T20:28:54.042Z,50.17
2019-03-24T20:31:25.259Z,51.02
2019-03-24T20:33:56.276Z,53.10
2019-03-24T20:36:27.241Z,53.20
2019-03-24T20:38:58.228Z,54.88
2019-03-24T20:41:29.186Z,52.53
2019-03-24T20:44:00.177Z,53.83
2019-03-24T20:46:31.127Z,53.17
2019-03-24T20:49:02.141Z,51.28
2019-03-24T20:51:33.220Z,56.50
2019-03-24T20:54:04.371Z,57.45
2019-03-24T20:56:35.471Z,58.00
2019-03-24T20:59:06.457Z,56.95
2019-03-24T21:01:37.420Z,62.15
2019-03-24T21:04:08.457Z,58.30
2019-03-24T21:06:39.444Z,59.73
2019-03-24T21:09:10.891Z,56.65
2019-03-24T21:11:42.045Z,57.53
2019-03-24T21:14:13.033Z,53.40
2019-03-24T21:16:43.983Z,53.00
2019-03-24T21:19:14.973Z,56.18
2019-03-24T21:21:45.916Z,55.58
2019-03-24T21:24:16.888Z,53.87
2019-03-24T21:26:48.975Z,56.80
2019-03-24T21:29:19.953Z,56.92
2019-03-24T21:31:50.931Z,57.78
2019-03-24T21:34:21.890Z,58.23
2019-03-24T21:36:52.931Z,58.20
2019-03-24T21:39:26.223Z,61.30
2019-03-24T21:41:57.436Z,59.15
2019-03-24T21:44:28.391Z,60.40
2019-03-24T21:46:59.382Z,68.62
2019-03-24T21:49:31.333Z,60.65
2019-03-24T21:52:02.306Z,62.38
2019-03-24T21:54:33.254Z,62.10
2019-03-24T21:57:04.380Z,62.40
2019-03-24T21:59:35.326Z,61.15
2019-03-24T22:02:06.393Z,59.00
2019-03-24T22:04:37.321Z,61.40
2019-03-24T22:07:08.291Z,60.80
2019-03-24T22:09:39.335Z,62.48
2019-03-24T22:12:10.472Z,63.92
2019-03-24T22:14:41.427Z,63.13
2019-03-24T22:17:12.410Z,62.90
2019-03-24T22:19:44.346Z,65.15
2019-03-24T22:22:15.340Z,62.20
2019-03-24T22:24:46.290Z,62.20
2019-03-24T22:27:17.268Z,63.00
2019-03-24T22:29:48.191Z,63.15
2019-03-24T22:32:20.266Z,60.98
2019-03-24T22:34:51.245Z,56.73
2019-03-24T22:37:23.382Z,62.53
2019-03-24T22:39:54.528Z,59.60
2019-03-24T22:42:25.818Z,61.40
2019-03-24T22:44:56.899Z,57.93
2019-03-24T22:47:27.860Z,59.77
2019-03-24T22:49:58.833Z,58.40
2019-03-24T22:52:29.862Z,58.20
2019-03-24T22:55:00.856Z,62.78
2019-03-24T22:57:32.758Z,60.85
2019-03-24T23:00:04.818Z,59.67
2019-03-24T23:02:36.168Z,59.33
2019-03-24T23:05:07.631Z,60.35
2019-03-24T23:07:38.606Z,58.98
2019-03-24T23:10:09.598Z,60.78
2019-03-24T23:12:40.566Z,61.50
2019-03-24T23:15:11.839Z,56.88
2019-03-24T23:17:42.786Z,58.08
2019-03-24T23:20:13.765Z,58.45
2019-03-24T23:22:44.703Z,61.13
2019-03-24T23:25:15.675Z,58.92
2019-03-24T23:27:46.614Z,59.23
2019-03-24T23:30:18.121Z,56.80
2019-03-24T23:32:49.119Z,60.73
2019-03-24T23:35:21.264Z,61.15
2019-03-24T23:37:52.382Z,61.75
2019-03-24T23:40:23.658Z,59.18
2019-03-24T23:42:54.663Z,64.70
2019-03-24T23:45:25.645Z,58.40
2019-03-24T23:47:56.595Z,58.33
2019-03-24T23:50:27.673Z,55.63
2019-03-24T23:52:58.731Z,55.08
2019-03-24T23:55:29.704Z,56.70
2019-03-24T23:58:00.656Z,54.95
